Time;durP1;ratioP1;P1;durP2;ratioP2;P2;SDS_P1;SDS_P2;PMS_P1;PMS_P2;Temp;Humidity;BMP_temperature;BMP_pressure;BME280_temperature;BME280_humidity;BME280_pressure;Samples;Min_cycle;Max_cycle;Signal;HPM_P1;HPM_P2
2021/07/26 00:01:30;;;;;;;7.63;6.40;;;;;;;;;;5018640;28;20175;-55
2021/07/26 00:03:55;;;;;;;9.45;8.05;;;;;;;;;;5018524;28;21136;-55
2021/07/26 00:06:20;;;;;;;8.48;7.60;;;;;;;;;;5018821;28;20183;-55
2021/07/26 00:08:45;;;;;;;7.80;6.97;;;;;;;;;;5018720;28;20190;-56
2021/07/26 00:11:11;;;;;;;8.20;7.17;;;;;;;;;;5013160;28;20827;-55
2021/07/26 00:13:37;;;;;;;10.10;6.88;;;;;;;;;;5014940;28;20512;-55
2021/07/26 00:16:03;;;;;;;8.65;6.63;;;;;;;;;;5015200;28;20186;-55
2021/07/26 00:18:28;;;;;;;13.40;7.05;;;;;;;;;;5016043;28;20272;-55
2021/07/26 00:20:54;;;;;;;8.77;6.90;;;;;;;;;;5021105;28;20190;-54
2021/07/26 00:23:19;;;;;;;7.88;6.50;;;;;;;;;;5019862;28;20179;-55
2021/07/26 00:25:44;;;;;;;8.90;6.78;;;;;;;;;;5022798;28;20273;-54
2021/07/26 00:28:09;;;;;;;8.47;5.70;;;;;;;;;;5004825;28;20245;-55
2021/07/26 00:30:35;;;;;;;9.30;5.93;;;;;;;;;;5011679;28;20820;-55
2021/07/26 00:33:00;;;;;;;7.72;6.28;;;;;;;;;;5001786;28;20192;-55
2021/07/26 00:35:25;;;;;;;7.28;6.40;;;;;;;;;;5017860;28;20671;-55
2021/07/26 00:37:51;;;;;;;7.25;6.18;;;;;;;;;;5016316;28;20259;-55
2021/07/26 00:40:16;;;;;;;11.98;5.80;;;;;;;;;;5011225;28;20288;-55
2021/07/26 00:42:42;;;;;;;6.50;5.82;;;;;;;;;;5025406;28;20182;-55
2021/07/26 00:45:07;;;;;;;7.88;6.38;;;;;;;;;;5025512;28;20219;-55
2021/07/26 00:47:32;;;;;;;10.30;6.68;;;;;;;;;;5025794;28;20445;-54
2021/07/26 00:49:58;;;;;;;9.93;7.40;;;;;;;;;;5022028;28;20597;-55
2021/07/26 00:52:24;;;;;;;9.88;6.57;;;;;;;;;;5026862;28;20182;-54
2021/07/26 00:54:49;;;;;;;8.15;6.20;;;;;;;;;;5028083;28;20217;-54
2021/07/26 00:57:15;;;;;;;9.35;7.20;;;;;;;;;;5020033;28;20238;-54
2021/07/26 00:59:40;;;;;;;8.43;7.38;;;;;;;;;;5021949;28;20171;-55
2021/07/26 01:02:05;;;;;;;9.20;6.47;;;;;;;;;;5025805;28;20245;-55
2021/07/26 01:04:30;;;;;;;11.07;6.55;;;;;;;;;;5024768;28;20182;-54
2021/07/26 01:06:56;;;;;;;12.90;6.63;;;;;;;;;;5022018;28;20210;-55
2021/07/26 01:09:21;;;;;;;17.27;7.38;;;;;;;;;;4987774;28;20685;-54
2021/07/26 01:11:46;;;;;;;9.73;6.70;;;;;;;;;;5017024;28;20194;-55
2021/07/26 01:14:15;;;;;;;9.23;7.82;;;;;;;;;;5023337;28;20175;-55
2021/07/26 01:16:40;;;;;;;10.70;6.97;;;;;;;;;;5015135;28;20695;-55
2021/07/26 01:19:05;;;;;;;10.05;7.53;;;;;;;;;;5008893;28;20210;-55
2021/07/26 01:21:31;;;;;;;13.25;8.15;;;;;;;;;;5019905;28;20187;-55
2021/07/26 01:23:56;;;;;;;8.90;7.65;;;;;;;;;;5011674;28;20183;-55
2021/07/26 01:26:22;;;;;;;12.68;7.93;;;;;;;;;;5015202;28;20661;-55
2021/07/26 01:28:58;;;;;;;10.30;8.32;;;;;;;;;;5028208;28;20542;-54
2021/07/26 01:31:23;;;;;;;10.65;7.75;;;;;;;;;;5018143;28;20217;-55
2021/07/26 01:33:49;;;;;;;10.23;8.10;;;;;;;;;;5018669;28;20276;-55
2021/07/26 01:36:15;;;;;;;11.20;8.35;;;;;;;;;;5009503;28;20189;-55
2021/07/26 01:38:42;;;;;;;9.05;8.13;;;;;;;;;;5029266;28;20194;-55
2021/07/26 01:41:10;;;;;;;11.35;8.77;;;;;;;;;;5022443;28;20643;-55
2021/07/26 01:43:50;;;;;;;9.80;8.27;;;;;;;;;;5003536;28;20234;-55
2021/07/26 01:46:33;;;;;;;10.65;9.05;;;;;;;;;;5026709;28;20233;-55
2021/07/26 01:49:01;;;;;;;10.82;8.20;;;;;;;;;;5024351;28;20187;-55
2021/07/26 01:51:35;;;;;;;9.77;8.77;;;;;;;;;;5029463;28;20290;-55
2021/07/26 01:54:00;;;;;;;10.50;8.18;;;;;;;;;;5026371;28;20178;-55
2021/07/26 01:56:25;;;;;;;8.87;7.87;;;;;;;;;;5024697;28;20199;-55
2021/07/26 01:58:50;;;;;;;8.30;7.50;;;;;;;;;;5024834;28;20749;-55
2021/07/26 02:01:16;;;;;;;9.60;7.75;;;;;;;;;;5023626;28;20430;-56
2021/07/26 02:03:41;;;;;;;11.15;8.73;;;;;;;;;;5026938;28;20620;-56
2021/07/26 02:06:06;;;;;;;10.63;8.57;;;;;;;;;;5019595;28;20195;-56
2021/07/26 02:08:31;;;;;;;8.68;7.15;;;;;;;;;;5021430;28;20293;-55
2021/07/26 02:10:56;;;;;;;10.03;7.70;;;;;;;;;;5024214;28;20591;-55
2021/07/26 02:13:21;;;;;;;9.90;8.17;;;;;;;;;;5014606;28;20422;-55
2021/07/26 02:15:47;;;;;;;9.30;7.38;;;;;;;;;;5028776;28;20422;-55
2021/07/26 02:18:12;;;;;;;9.48;8.48;;;;;;;;;;5006743;28;20646;-55
2021/07/26 02:20:37;;;;;;;11.48;8.50;;;;;;;;;;5024226;28;20444;-55
2021/07/26 02:23:03;;;;;;;11.98;8.60;;;;;;;;;;5021458;28;20178;-55
2021/07/26 02:25:29;;;;;;;14.73;8.85;;;;;;;;;;5016662;28;20175;-55
2021/07/26 02:27:54;;;;;;;11.07;8.60;;;;;;;;;;5026820;28;20214;-55
2021/07/26 02:30:19;;;;;;;10.23;7.82;;;;;;;;;;5016814;28;20191;-55
2021/07/26 02:32:44;;;;;;;20.45;8.80;;;;;;;;;;5003970;28;20186;-55
2021/07/26 02:35:10;;;;;;;9.27;8.02;;;;;;;;;;5026288;28;20202;-56
2021/07/26 02:37:35;;;;;;;9.15;7.03;;;;;;;;;;5024580;28;20301;-55
2021/07/26 02:40:00;;;;;;;10.27;7.97;;;;;;;;;;5016944;28;20183;-55
2021/07/26 02:42:25;;;;;;;10.65;8.27;;;;;;;;;;5001649;28;20663;-55
2021/07/26 02:44:51;;;;;;;16.58;8.90;;;;;;;;;;5022815;28;20218;-55
2021/07/26 02:47:16;;;;;;;11.18;8.15;;;;;;;;;;5025111;28;20278;-55
2021/07/26 02:49:41;;;;;;;11.90;7.63;;;;;;;;;;5023043;28;20229;-55
2021/07/26 02:52:06;;;;;;;11.73;7.13;;;;;;;;;;5021688;28;20210;-55
2021/07/26 02:54:31;;;;;;;12.15;8.45;;;;;;;;;;5015149;28;20660;-55
2021/07/26 02:56:57;;;;;;;12.13;7.65;;;;;;;;;;5027436;28;20195;-55
2021/07/26 02:59:22;;;;;;;10.27;7.25;;;;;;;;;;5010490;28;20655;-55
2021/07/26 03:01:49;;;;;;;14.32;8.13;;;;;;;;;;5022702;28;20253;-55
2021/07/26 03:04:14;;;;;;;15.95;7.47;;;;;;;;;;5018102;28;20218;-55
2021/07/26 03:06:40;;;;;;;10.77;7.35;;;;;;;;;;5005872;28;20227;-56
2021/07/26 03:09:05;;;;;;;12.60;6.72;;;;;;;;;;5017066;28;20631;-55
2021/07/26 03:11:30;;;;;;;10.68;7.03;;;;;;;;;;5023886;28;20642;-56
2021/07/26 03:13:55;;;;;;;11.02;6.65;;;;;;;;;;5015361;28;20198;-55
2021/07/26 03:16:21;;;;;;;10.13;6.82;;;;;;;;;;5017358;28;20189;-55
2021/07/26 03:18:46;;;;;;;13.60;7.25;;;;;;;;;;5023289;28;20206;-55
2021/07/26 03:21:12;;;;;;;9.82;6.70;;;;;;;;;;5019956;28;20781;-55
2021/07/26 03:23:37;;;;;;;13.93;7.00;;;;;;;;;;5020523;28;20193;-55
2021/07/26 03:26:02;;;;;;;10.50;6.47;;;;;;;;;;5017883;28;20198;-55
2021/07/26 03:28:28;;;;;;;13.27;7.18;;;;;;;;;;4997567;28;20566;-55
2021/07/26 03:30:53;;;;;;;10.50;6.70;;;;;;;;;;5026327;28;20183;-55
2021/07/26 03:33:18;;;;;;;15.73;7.73;;;;;;;;;;5009885;28;20202;-55
2021/07/26 03:35:43;;;;;;;8.35;6.00;;;;;;;;;;5017504;28;20187;-56
2021/07/26 03:38:08;;;;;;;10.93;6.30;;;;;;;;;;5022478;28;20210;-55
2021/07/26 03:40:34;;;;;;;7.40;5.67;;;;;;;;;;5022202;28;20266;-55
2021/07/26 03:43:01;;;;;;;16.80;6.50;;;;;;;;;;5026994;28;20210;-55
2021/07/26 03:45:26;;;;;;;9.73;6.00;;;;;;;;;;5012884;28;20195;-55
2021/07/26 03:47:54;;;;;;;12.63;6.03;;;;;;;;;;5020725;28;20248;-55
2021/07/26 03:50:19;;;;;;;14.63;6.28;;;;;;;;;;5022003;28;20853;-55
2021/07/26 03:52:45;;;;;;;7.63;5.63;;;;;;;;;;5018715;28;20190;-55
2021/07/26 03:55:12;;;;;;;21.03;6.23;;;;;;;;;;5010245;28;20188;-55
2021/07/26 03:57:37;;;;;;;13.57;6.25;;;;;;;;;;5019815;28;20206;-55
2021/07/26 04:00:03;;;;;;;9.67;5.53;;;;;;;;;;5020122;28;20684;-55
2021/07/26 04:02:28;;;;;;;16.23;6.00;;;;;;;;;;5017515;28;20214;-55
2021/07/26 04:04:53;;;;;;;9.50;6.13;;;;;;;;;;5027976;28;20178;-57
2021/07/26 04:07:23;;;;;;;10.80;5.97;;;;;;;;;;5022999;28;20678;-55
2021/07/26 04:09:54;;;;;;;11.40;6.22;;;;;;;;;;5026170;28;20187;-55
2021/07/26 04:12:23;;;;;;;7.53;5.50;;;;;;;;;;5027545;28;20679;-55
2021/07/26 04:14:49;;;;;;;8.57;5.80;;;;;;;;;;5021818;23;20235;-55
2021/07/26 04:17:14;;;;;;;10.82;6.05;;;;;;;;;;5005495;28;20254;-55
2021/07/26 04:19:39;;;;;;;6.47;5.67;;;;;;;;;;4999614;28;20180;-55
2021/07/26 04:22:04;;;;;;;13.98;5.40;;;;;;;;;;5002359;28;20506;-55
2021/07/26 04:24:29;;;;;;;19.05;5.65;;;;;;;;;;5009246;28;20215;-55
2021/07/26 04:26:55;;;;;;;9.70;5.05;;;;;;;;;;4998048;28;20326;-55
2021/07/26 04:29:20;;;;;;;9.65;5.57;;;;;;;;;;5006687;28;20187;-55
2021/07/26 04:31:46;;;;;;;9.75;5.88;;;;;;;;;;5004579;28;20217;-55
2021/07/26 04:34:11;;;;;;;10.15;5.50;;;;;;;;;;4998842;28;20199;-55
2021/07/26 04:36:37;;;;;;;10.10;6.07;;;;;;;;;;5005612;28;20274;-56
2021/07/26 04:39:02;;;;;;;7.65;5.13;;;;;;;;;;5008282;28;20199;-55
2021/07/26 04:41:27;;;;;;;12.80;5.53;;;;;;;;;;4998240;28;20262;-55
2021/07/26 04:43:52;;;;;;;9.13;5.00;;;;;;;;;;4994049;28;20207;-56
2021/07/26 04:46:17;;;;;;;13.95;5.90;;;;;;;;;;5005133;28;20242;-55
2021/07/26 04:48:43;;;;;;;9.50;5.00;;;;;;;;;;5009664;28;20765;-55
2021/07/26 04:51:08;;;;;;;10.00;5.47;;;;;;;;;;4991025;28;20179;-55
2021/07/26 04:53:34;;;;;;;8.85;5.80;;;;;;;;;;5008102;28;21010;-55
2021/07/26 04:55:59;;;;;;;15.93;6.45;;;;;;;;;;5008347;28;20685;-55
2021/07/26 04:58:24;;;;;;;16.42;7.07;;;;;;;;;;4987222;28;20203;-55
2021/07/26 05:00:49;;;;;;;12.27;6.97;;;;;;;;;;4998150;28;20180;-55
2021/07/26 05:03:14;;;;;;;10.57;6.03;;;;;;;;;;5005399;28;20176;-55
2021/07/26 05:05:39;;;;;;;12.88;6.60;;;;;;;;;;5005335;28;20234;-55
2021/07/26 05:08:05;;;;;;;23.93;7.03;;;;;;;;;;5008882;28;20195;-55
2021/07/26 05:10:30;;;;;;;16.90;6.45;;;;;;;;;;5008907;28;21051;-56
2021/07/26 05:12:55;;;;;;;18.17;6.28;;;;;;;;;;5008028;28;20184;-56
2021/07/26 05:15:20;;;;;;;17.17;6.67;;;;;;;;;;5006251;28;20648;-56
2021/07/26 05:17:45;;;;;;;17.60;7.00;;;;;;;;;;5006824;28;20454;-57
2021/07/26 05:20:11;;;;;;;20.10;6.80;;;;;;;;;;5001736;28;20184;-56
2021/07/26 05:22:39;;;;;;;14.68;7.05;;;;;;;;;;5008262;28;20804;-56
2021/07/26 05:25:08;;;;;;;15.40;6.32;;;;;;;;;;5007381;28;20799;-56
2021/07/26 05:27:33;;;;;;;14.88;6.22;;;;;;;;;;5009300;28;20192;-56
2021/07/26 05:29:58;;;;;;;18.15;6.65;;;;;;;;;;4992515;28;20175;-56
2021/07/26 05:32:24;;;;;;;12.85;6.03;;;;;;;;;;5008170;28;20183;-56
2021/07/26 05:34:49;;;;;;;13.07;7.00;;;;;;;;;;5007664;28;20253;-55
2021/07/26 05:37:14;;;;;;;11.38;6.07;;;;;;;;;;5009168;28;20176;-56
2021/07/26 05:39:39;;;;;;;10.95;6.00;;;;;;;;;;5006920;28;20187;-56
2021/07/26 05:42:06;;;;;;;12.57;5.80;;;;;;;;;;5004741;28;20564;-58
2021/07/26 05:44:32;;;;;;;12.65;6.13;;;;;;;;;;5010207;28;20566;-57
2021/07/26 05:46:57;;;;;;;8.27;5.68;;;;;;;;;;5007529;28;20184;-57
2021/07/26 05:49:23;;;;;;;7.40;4.88;;;;;;;;;;5006918;28;20622;-56
2021/07/26 05:51:48;;;;;;;8.98;5.25;;;;;;;;;;5008025;28;20192;-56
2021/07/26 05:54:13;;;;;;;7.22;5.75;;;;;;;;;;5009381;28;20569;-56
2021/07/26 05:56:42;;;;;;;10.93;6.07;;;;;;;;;;5007815;28;20829;-56
2021/07/26 05:59:07;;;;;;;8.10;5.53;;;;;;;;;;5011202;28;20466;-55
2021/07/26 06:01:48;;;;;;;10.00;5.95;;;;;;;;;;5005420;28;20186;-54
2021/07/26 06:04:14;;;;;;;7.75;5.43;;;;;;;;;;4993508;28;20203;-56
2021/07/26 06:06:41;;;;;;;7.63;5.18;;;;;;;;;;5004275;28;20183;-56
2021/07/26 06:09:06;;;;;;;9.43;5.80;;;;;;;;;;5004742;28;20672;-55
2021/07/26 06:11:31;;;;;;;9.47;5.20;;;;;;;;;;5001787;28;20184;-55
2021/07/26 06:13:57;;;;;;;13.77;5.53;;;;;;;;;;5006373;28;20532;-56
2021/07/26 06:16:22;;;;;;;7.32;5.35;;;;;;;;;;5002760;28;20291;-57
2021/07/26 06:18:47;;;;;;;9.73;5.37;;;;;;;;;;5003741;28;20239;-56
2021/07/26 06:21:12;;;;;;;11.18;5.40;;;;;;;;;;5003606;28;20439;-55
2021/07/26 06:23:37;;;;;;;8.10;4.82;;;;;;;;;;5003947;28;20241;-54
2021/07/26 06:26:07;;;;;;;6.43;4.93;;;;;;;;;;5004701;28;20187;-55
2021/07/26 06:28:32;;;;;;;8.82;5.05;;;;;;;;;;5003444;28;20195;-55
2021/07/26 06:30:58;;;;;;;8.98;4.80;;;;;;;;;;5003261;28;20189;-55
2021/07/26 06:33:23;;;;;;;8.63;5.25;;;;;;;;;;5004260;28;20183;-55
2021/07/26 06:35:48;;;;;;;9.57;4.40;;;;;;;;;;5001890;28;20789;-55
2021/07/26 06:38:14;;;;;;;7.78;5.05;;;;;;;;;;4999581;28;20481;-55
2021/07/26 06:40:42;;;;;;;7.38;4.68;;;;;;;;;;5004409;28;20434;-55
2021/07/26 06:43:07;;;;;;;5.95;4.97;;;;;;;;;;4988504;28;20238;-55
2021/07/26 06:45:32;;;;;;;8.95;4.88;;;;;;;;;;5002141;28;20699;-55
2021/07/26 06:47:58;;;;;;;6.60;4.65;;;;;;;;;;5007333;28;20199;-54
2021/07/26 06:50:23;;;;;;;7.07;5.10;;;;;;;;;;5004406;28;20206;-55
2021/07/26 06:52:49;;;;;;;8.35;5.47;;;;;;;;;;5005271;28;20811;-55
2021/07/26 06:55:14;;;;;;;9.68;4.63;;;;;;;;;;5004509;28;20722;-55
2021/07/26 06:57:39;;;;;;;6.18;5.10;;;;;;;;;;5006361;28;20203;-55
2021/07/26 07:00:05;;;;;;;6.20;4.63;;;;;;;;;;5003327;28;20679;-54
2021/07/26 07:02:30;;;;;;;6.07;5.05;;;;;;;;;;5004809;28;20807;-56
2021/07/26 07:04:55;;;;;;;7.37;4.57;;;;;;;;;;5002928;28;20204;-55
2021/07/26 07:07:20;;;;;;;8.17;4.60;;;;;;;;;;5006034;28;20438;-55
2021/07/26 07:09:45;;;;;;;4.97;3.50;;;;;;;;;;5003775;28;20434;-56
2021/07/26 07:12:14;;;;;;;6.78;4.07;;;;;;;;;;4988895;28;20496;-56
2021/07/26 07:14:40;;;;;;;4.72;3.75;;;;;;;;;;5006354;28;20300;-55
2021/07/26 07:17:05;;;;;;;4.93;3.67;;;;;;;;;;5004749;28;20305;-56
2021/07/26 07:19:30;;;;;;;6.57;3.53;;;;;;;;;;5002264;28;20217;-55
2021/07/26 07:21:55;;;;;;;3.87;3.50;;;;;;;;;;4986040;28;20194;-56
2021/07/26 07:24:20;;;;;;;4.33;3.73;;;;;;;;;;5001780;28;20726;-53
2021/07/26 07:26:45;;;;;;;4.30;3.60;;;;;;;;;;5001409;28;20175;-56
2021/07/26 07:29:11;;;;;;;5.70;3.60;;;;;;;;;;5006247;28;20422;-56
2021/07/26 07:31:39;;;;;;;4.00;3.67;;;;;;;;;;5000148;28;20185;-56
2021/07/26 07:34:05;;;;;;;4.32;3.92;;;;;;;;;;5004904;28;20833;-56
2021/07/26 07:36:30;;;;;;;5.70;3.92;;;;;;;;;;5002390;28;20281;-56
2021/07/26 07:38:56;;;;;;;4.38;4.03;;;;;;;;;;4985755;28;20288;-56
2021/07/26 07:41:22;;;;;;;4.60;4.30;;;;;;;;;;5003283;28;20187;-55
2021/07/26 07:43:47;;;;;;;4.72;4.22;;;;;;;;;;5008876;28;20210;-57
2021/07/26 07:46:13;;;;;;;4.53;4.23;;;;;;;;;;5010289;28;20190;-56
2021/07/26 07:48:38;;;;;;;7.85;5.30;;;;;;;;;;5008834;28;20324;-57
2021/07/26 07:51:09;;;;;;;5.13;4.63;;;;;;;;;;5007349;28;20233;-56
2021/07/26 07:53:34;;;;;;;6.18;5.32;;;;;;;;;;4988276;28;20441;-57
2021/07/26 07:55:59;;;;;;;5.23;4.83;;;;;;;;;;4998076;28;20190;-56
2021/07/26 07:58:24;;;;;;;7.45;5.28;;;;;;;;;;5007474;28;20210;-55
2021/07/26 08:00:50;;;;;;;5.90;5.40;;;;;;;;;;5009675;28;20211;-57
2021/07/26 08:03:16;;;;;;;6.25;5.75;;;;;;;;;;5010106;28;20181;-57
2021/07/26 08:05:41;;;;;;;5.63;5.22;;;;;;;;;;5007983;28;20195;-58
2021/07/26 08:08:07;;;;;;;6.27;5.73;;;;;;;;;;5007615;28;20217;-61
2021/07/26 08:10:33;;;;;;;5.35;4.85;;;;;;;;;;5009635;28;20210;-62
2021/07/26 08:12:58;;;;;;;5.13;4.63;;;;;;;;;;5004268;28;20745;-60
2021/07/26 08:15:23;;;;;;;5.23;4.77;;;;;;;;;;5010438;28;20536;-61
2021/07/26 08:17:48;;;;;;;5.38;4.97;;;;;;;;;;5009775;28;20206;-60
2021/07/26 08:20:15;;;;;;;4.77;4.37;;;;;;;;;;5010320;28;20214;-59
2021/07/26 08:22:40;;;;;;;5.90;5.28;;;;;;;;;;5006123;28;20422;-60
2021/07/26 08:25:06;;;;;;;5.75;5.15;;;;;;;;;;4994377;28;20198;-61
2021/07/26 08:27:32;;;;;;;5.38;4.88;;;;;;;;;;5007760;28;20226;-63
2021/07/26 08:29:57;;;;;;;4.97;4.47;;;;;;;;;;4991417;28;20677;-62
2021/07/26 08:32:22;;;;;;;5.10;4.20;;;;;;;;;;5005711;28;20448;-61
2021/07/26 08:34:48;;;;;;;5.28;4.10;;;;;;;;;;5009336;28;20195;-62
2021/07/26 08:37:13;;;;;;;4.07;3.67;;;;;;;;;;5008213;28;20182;-59
2021/07/26 08:39:39;;;;;;;4.50;4.10;;;;;;;;;;5008352;28;20968;-56
2021/07/26 08:42:04;;;;;;;5.75;4.15;;;;;;;;;;4991369;28;20194;-57
2021/07/26 08:44:33;;;;;;;4.72;4.32;;;;;;;;;;5006272;28;20206;-56
2021/07/26 08:46:58;;;;;;;5.15;4.57;;;;;;;;;;5008294;28;20270;-56
2021/07/26 08:49:26;;;;;;;9.60;4.65;;;;;;;;;;5009978;28;20250;-57
2021/07/26 08:51:51;;;;;;;7.20;4.85;;;;;;;;;;5008323;28;20202;-56
2021/07/26 08:54:17;;;;;;;4.90;4.50;;;;;;;;;;5003946;28;20253;-56
2021/07/26 08:56:42;;;;;;;4.72;4.00;;;;;;;;;;4998580;28;20245;-57
2021/07/26 08:59:07;;;;;;;4.65;4.07;;;;;;;;;;5003607;28;20210;-57
2021/07/26 09:01:33;;;;;;;4.40;4.00;;;;;;;;;;4999283;28;20198;-57
2021/07/26 09:03:58;;;;;;;4.93;4.43;;;;;;;;;;4999757;28;20205;-57
2021/07/26 09:06:24;;;;;;;6.77;4.50;;;;;;;;;;4999603;28;20175;-57
2021/07/26 09:08:49;;;;;;;5.07;4.55;;;;;;;;;;4997792;28;20194;-57
2021/07/26 09:11:15;;;;;;;5.88;4.90;;;;;;;;;;4999562;28;20214;-57
2021/07/26 09:13:44;;;;;;;4.77;4.37;;;;;;;;;;4999203;28;20194;-58
2021/07/26 09:16:13;;;;;;;5.65;5.10;;;;;;;;;;4999204;28;20225;-57
2021/07/26 09:18:38;;;;;;;7.22;5.47;;;;;;;;;;4998988;28;20233;-55
2021/07/26 09:21:03;;;;;;;6.40;5.47;;;;;;;;;;5001186;28;20183;-55
2021/07/26 09:23:29;;;;;;;5.80;5.40;;;;;;;;;;4998655;28;20187;-56
2021/07/26 09:25:55;;;;;;;6.63;5.77;;;;;;;;;;4982852;28;20697;-57
2021/07/26 09:28:20;;;;;;;6.40;5.72;;;;;;;;;;5000780;28;20207;-57
2021/07/26 09:30:47;;;;;;;6.90;6.18;;;;;;;;;;4996712;28;20773;-62
2021/07/26 09:33:27;;;;;;;6.35;5.95;;;;;;;;;;5002537;28;20191;-56
2021/07/26 09:36:03;;;;;;;6.68;6.15;;;;;;;;;;5004398;28;20195;-57
2021/07/26 09:38:28;;;;;;;7.75;7.15;;;;;;;;;;5005381;28;20214;-56
2021/07/26 09:40:53;;;;;;;7.22;6.75;;;;;;;;;;5005664;28;20210;-57
2021/07/26 09:43:22;;;;;;;7.03;6.53;;;;;;;;;;4988805;28;20666;-56
2021/07/26 09:45:48;;;;;;;6.53;6.03;;;;;;;;;;5005285;28;20203;-56
2021/07/26 09:48:15;;;;;;;6.43;6.03;;;;;;;;;;5002908;28;20179;-57
2021/07/26 09:50:40;;;;;;;5.88;5.47;;;;;;;;;;5004312;28;20233;-57
2021/07/26 09:53:13;;;;;;;6.23;5.83;;;;;;;;;;5002791;28;20194;-57
2021/07/26 09:55:41;;;;;;;5.82;5.53;;;;;;;;;;5003628;28;20289;-57
2021/07/26 09:58:06;;;;;;;7.07;6.57;;;;;;;;;;4990863;28;20286;-57
2021/07/26 10:00:32;;;;;;;6.93;6.23;;;;;;;;;;5006485;28;20214;-57
2021/07/26 10:02:57;;;;;;;7.70;7.20;;;;;;;;;;5003758;28;20403;-56
2021/07/26 10:05:31;;;;;;;7.70;6.97;;;;;;;;;;5005317;28;20717;-57
2021/07/26 10:07:56;;;;;;;7.47;6.38;;;;;;;;;;5004300;28;20183;-56
2021/07/26 10:10:22;;;;;;;10.40;6.28;;;;;;;;;;4988710;28;20804;-57
2021/07/26 10:12:48;;;;;;;5.90;5.40;;;;;;;;;;5006152;28;20282;-56
2021/07/26 10:15:13;;;;;;;5.55;5.15;;;;;;;;;;5001060;28;20777;-57
2021/07/26 10:17:39;;;;;;;5.80;5.25;;;;;;;;;;5005745;28;20190;-57
2021/07/26 10:20:05;;;;;;;5.65;5.03;;;;;;;;;;5005385;28;20186;-58
2021/07/26 10:22:31;;;;;;;4.57;4.18;;;;;;;;;;5003714;28;20180;-58
2021/07/26 10:25:00;;;;;;;5.38;4.97;;;;;;;;;;5001279;28;20749;-58
2021/07/26 10:27:29;;;;;;;5.43;4.93;;;;;;;;;;5003274;28;20198;-58
2021/07/26 10:29:57;;;;;;;7.85;5.07;;;;;;;;;;5001514;28;20217;-59
2021/07/26 10:32:29;;;;;;;5.05;4.65;;;;;;;;;;5004101;28;20186;-58
2021/07/26 10:34:54;;;;;;;5.05;4.63;;;;;;;;;;5005410;28;20841;-58
2021/07/26 10:37:38;;;;;;;4.25;4.05;;;;;;;;;;5005086;28;20202;-58
2021/07/26 10:40:21;;;;;;;4.43;4.13;;;;;;;;;;5005029;28;20198;-58
2021/07/26 10:42:47;;;;;;;4.30;4.00;;;;;;;;;;5002324;28;20186;-58
2021/07/26 10:45:44;;;;;;;4.18;3.85;;;;;;;;;;4991911;28;20203;-57
2021/07/26 10:48:22;;;;;;;4.40;3.97;;;;;;;;;;5003408;28;20632;-58
2021/07/26 10:50:48;;;;;;;4.80;3.67;;;;;;;;;;5002443;28;20182;-58
2021/07/26 10:53:31;;;;;;;4.10;3.80;;;;;;;;;;5005694;28;20183;-57
2021/07/26 10:56:04;;;;;;;5.28;4.10;;;;;;;;;;5001781;28;20193;-57
2021/07/26 10:58:38;;;;;;;4.57;4.18;;;;;;;;;;5003962;28;20294;-56
2021/07/26 11:01:22;;;;;;;5.75;4.55;;;;;;;;;;5001501;28;20273;-57
2021/07/26 11:03:47;;;;;;;4.47;4.18;;;;;;;;;;5002425;28;20190;-58
2021/07/26 11:06:31;;;;;;;4.40;4.10;;;;;;;;;;5006239;28;20595;-58
2021/07/26 11:09:17;;;;;;;4.10;3.80;;;;;;;;;;5004367;28;20298;-59
2021/07/26 11:11:42;;;;;;;6.45;4.30;;;;;;;;;;5001949;28;20182;-58
2021/07/26 11:14:09;;;;;;;4.40;4.00;;;;;;;;;;5002979;28;20607;-58
2021/07/26 11:16:49;;;;;;;4.90;4.10;;;;;;;;;;5004331;28;20648;-57
2021/07/26 11:19:30;;;;;;;5.15;4.75;;;;;;;;;;5003168;28;20213;-58
2021/07/26 11:21:55;;;;;;;4.68;4.28;;;;;;;;;;5000628;28;20190;-58
2021/07/26 11:24:38;;;;;;;4.47;4.07;;;;;;;;;;4987264;28;20205;-58
2021/07/26 11:27:04;;;;;;;4.30;4.00;;;;;;;;;;5002557;28;20550;-57
2021/07/26 11:29:30;;;;;;;4.50;4.20;;;;;;;;;;4999812;28;20277;-58
2021/07/26 11:31:58;;;;;;;3.83;3.60;;;;;;;;;;4986194;28;20190;-58
2021/07/26 11:34:27;;;;;;;4.22;3.92;;;;;;;;;;5004569;28;20210;-58
2021/07/26 11:37:09;;;;;;;4.03;3.72;;;;;;;;;;5004393;28;20178;-57
2021/07/26 11:39:46;;;;;;;3.72;3.42;;;;;;;;;;5002102;28;20211;-57
2021/07/26 11:42:12;;;;;;;3.95;3.58;;;;;;;;;;4999997;28;20631;-58
2021/07/26 11:44:38;;;;;;;3.97;3.67;;;;;;;;;;5004232;28;20199;-58
2021/07/26 11:47:03;;;;;;;3.42;3.13;;;;;;;;;;5002560;28;20977;-58
2021/07/26 11:49:29;;;;;;;3.42;3.22;;;;;;;;;;5004288;28;20195;-58
2021/07/26 11:52:07;;;;;;;3.45;3.15;;;;;;;;;;4987503;28;20552;-58
2021/07/26 11:54:33;;;;;;;3.33;3.13;;;;;;;;;;5000168;28;20702;-57
2021/07/26 11:57:11;;;;;;;3.40;3.10;;;;;;;;;;4989419;28;20187;-57
2021/07/26 11:59:37;;;;;;;2.95;2.75;;;;;;;;;;4987083;28;20218;-57
2021/07/26 12:02:14;;;;;;;3.50;2.92;;;;;;;;;;5002154;28;20270;-57
2021/07/26 12:04:39;;;;;;;3.10;2.80;;;;;;;;;;5001492;28;20687;-57
2021/07/26 12:07:05;;;;;;;3.00;2.80;;;;;;;;;;5003473;28;20187;-56
2021/07/26 12:09:31;;;;;;;2.83;2.63;;;;;;;;;;5003801;28;20969;-56
2021/07/26 12:12:13;;;;;;;3.70;2.97;;;;;;;;;;5002302;28;20179;-56
2021/07/26 12:14:39;;;;;;;2.92;2.72;;;;;;;;;;4988247;28;20297;-56
2021/07/26 12:17:05;;;;;;;3.00;2.70;;;;;;;;;;5004607;28;20279;-56
2021/07/26 12:19:31;;;;;;;2.72;2.53;;;;;;;;;;5001337;28;20206;-56
2021/07/26 12:22:11;;;;;;;2.58;2.38;;;;;;;;;;5002568;28;20206;-56
2021/07/26 12:24:58;;;;;;;2.72;2.53;;;;;;;;;;5003251;28;20282;-56
2021/07/26 12:27:28;;;;;;;3.03;2.83;;;;;;;;;;4990963;28;20183;-57
2021/07/26 12:30:04;;;;;;;2.50;2.30;;;;;;;;;;5006719;28;20171;-56
2021/07/26 12:32:29;;;;;;;5.95;2.42;;;;;;;;;;5003520;28;20680;-56
2021/07/26 12:35:13;;;;;;;2.60;2.33;;;;;;;;;;5007236;28;20218;-57
2021/07/26 12:37:38;;;;;;;3.58;2.58;;;;;;;;;;5008064;28;20183;-57
2021/07/26 12:40:13;;;;;;;3.55;2.65;;;;;;;;;;5004327;28;20678;-57
2021/07/26 12:42:39;;;;;;;3.53;2.90;;;;;;;;;;5003146;28;20792;-57
2021/07/26 12:45:37;;;;;;;5.43;3.15;;;;;;;;;;5004731;28;20286;-56
2021/07/26 12:48:12;;;;;;;2.90;2.60;;;;;;;;;;4949214;28;20199;-57
2021/07/26 12:50:41;;;;;;;2.45;2.30;;;;;;;;;;5006479;28;20206;-57
2021/07/26 12:53:06;;;;;;;3.70;2.60;;;;;;;;;;5005730;28;20262;-57
2021/07/26 12:55:31;;;;;;;2.58;2.30;;;;;;;;;;5007661;22;20662;-56
2021/07/26 12:57:57;;;;;;;2.50;2.30;;;;;;;;;;5007562;28;20222;-58
2021/07/26 13:00:22;;;;;;;4.43;2.87;;;;;;;;;;5006084;28;20180;-58
2021/07/26 13:02:47;;;;;;;2.83;2.63;;;;;;;;;;5002828;28;20201;-58
2021/07/26 13:05:14;;;;;;;3.20;2.60;;;;;;;;;;5007921;28;20532;-58
2021/07/26 13:07:39;;;;;;;2.70;2.50;;;;;;;;;;5007466;28;20445;-56
2021/07/26 13:10:05;;;;;;;3.45;2.17;;;;;;;;;;5007440;28;20191;-56
2021/07/26 13:12:30;;;;;;;3.05;2.50;;;;;;;;;;5005756;28;20203;-57
2021/07/26 13:14:55;;;;;;;4.03;2.53;;;;;;;;;;5019440;28;20230;-55
2021/07/26 13:17:21;;;;;;;3.63;2.47;;;;;;;;;;5007722;28;20428;-56
2021/07/26 13:19:46;;;;;;;2.42;2.22;;;;;;;;;;5007882;28;20202;-56
2021/07/26 13:22:11;;;;;;;2.47;2.27;;;;;;;;;;5008182;28;20825;-58
2021/07/26 13:24:36;;;;;;;2.60;2.40;;;;;;;;;;5007456;28;20264;-58
2021/07/26 13:27:02;;;;;;;2.30;2.10;;;;;;;;;;5008968;28;20981;-57
2021/07/26 13:29:27;;;;;;;2.50;2.30;;;;;;;;;;5008687;28;20453;-58
2021/07/26 13:31:52;;;;;;;5.45;2.45;;;;;;;;;;5005650;28;20283;-58
2021/07/26 13:34:17;;;;;;;2.37;2.10;;;;;;;;;;5006982;28;20211;-58
2021/07/26 13:36:43;;;;;;;4.60;2.33;;;;;;;;;;5007443;28;20867;-58
2021/07/26 13:39:10;;;;;;;2.28;2.08;;;;;;;;;;5005565;28;20596;-58
2021/07/26 13:41:35;;;;;;;2.75;2.40;;;;;;;;;;5006600;28;20183;-58
2021/07/26 13:44:01;;;;;;;2.33;2.13;;;;;;;;;;5007314;28;20195;-58
2021/07/26 13:46:27;;;;;;;2.70;2.25;;;;;;;;;;5021791;28;20815;-58
2021/07/26 13:48:52;;;;;;;3.40;2.13;;;;;;;;;;5004600;28;20660;-57
2021/07/26 13:51:17;;;;;;;1.93;1.83;;;;;;;;;;5007965;28;20191;-58
2021/07/26 13:53:43;;;;;;;3.45;2.38;;;;;;;;;;5006622;28;20430;-57
2021/07/26 13:56:09;;;;;;;4.63;2.27;;;;;;;;;;5005331;28;20211;-57
2021/07/26 13:58:35;;;;;;;2.60;2.40;;;;;;;;;;5008130;28;20470;-57
2021/07/26 14:01:00;;;;;;;2.72;2.53;;;;;;;;;;5007473;28;20202;-57
2021/07/26 14:03:26;;;;;;;3.63;2.22;;;;;;;;;;5005547;28;20691;-57
2021/07/26 14:05:51;;;;;;;3.08;2.60;;;;;;;;;;5007432;28;20210;-58
2021/07/26 14:08:16;;;;;;;3.07;2.33;;;;;;;;;;5008498;28;20675;-57
2021/07/26 14:10:41;;;;;;;2.22;1.85;;;;;;;;;;5006045;28;20438;-57
2021/07/26 14:13:06;;;;;;;3.22;2.17;;;;;;;;;;5004547;28;20274;-58
2021/07/26 14:15:35;;;;;;;2.88;2.20;;;;;;;;;;5009614;28;20435;-57
2021/07/26 14:18:00;;;;;;;3.53;2.30;;;;;;;;;;5005654;28;20261;-57
2021/07/26 14:20:25;;;;;;;3.25;2.30;;;;;;;;;;5006881;28;20191;-57
2021/07/26 14:22:51;;;;;;;2.92;2.17;;;;;;;;;;5008083;28;20229;-58
2021/07/26 14:25:17;;;;;;;2.58;2.38;;;;;;;;;;5005990;28;20701;-57
2021/07/26 14:27:42;;;;;;;3.42;2.40;;;;;;;;;;5007806;28;20233;-58
2021/07/26 14:30:08;;;;;;;3.17;2.38;;;;;;;;;;5005980;28;20639;-58
2021/07/26 14:32:33;;;;;;;3.67;2.60;;;;;;;;;;5008807;28;20647;-57
2021/07/26 14:34:58;;;;;;;3.53;2.53;;;;;;;;;;5005737;28;20203;-57
2021/07/26 14:37:23;;;;;;;2.40;2.20;;;;;;;;;;5005002;28;20216;-58
2021/07/26 14:39:49;;;;;;;2.73;2.07;;;;;;;;;;5006921;28;20222;-58